createdAt,value
2023-05-18T00:08:52.991Z,99.90
2023-05-18T00:13:49.340Z,99.90
2023-05-18T00:31:07.886Z,99.90
2023-05-18T00:33:35.625Z,99.90
2023-05-18T00:36:03.425Z,99.90
2023-05-18T00:38:31.025Z,99.90
2023-05-18T00:43:32.368Z,99.90
2023-05-18T00:50:56.055Z,99.90
2023-05-18T00:53:23.885Z,99.90
2023-05-18T00:55:53.523Z,99.90
2023-05-18T01:08:17.903Z,99.90
2023-05-18T01:10:52.572Z,99.90
2023-05-18T01:13:51.969Z,99.90
2023-05-18T01:16:27.089Z,99.90
2023-05-18T01:19:16.764Z,99.90
2023-05-18T01:22:16.648Z,99.90
2023-05-18T01:24:49.176Z,99.90
2023-05-18T01:27:17.822Z,99.90
2023-05-18T01:29:46.700Z,99.90
2023-05-18T01:32:21.872Z,99.90
2023-05-18T01:34:50.493Z,99.90
2023-05-18T01:37:18.032Z,99.90
2023-05-18T01:39:45.693Z,99.90
2023-05-18T01:42:20.863Z,99.90
2023-05-18T01:44:53.418Z,99.90
2023-05-18T01:47:21.326Z,99.90
2023-05-18T01:50:13.156Z,99.90
2023-05-18T01:52:51.931Z,99.90
2023-05-18T01:55:20.348Z,99.90
2023-05-18T01:57:51.506Z,99.90
2023-05-18T02:00:22.324Z,99.90
2023-05-18T02:02:50.652Z,99.90
2023-05-18T02:05:19.209Z,99.90
2023-05-18T02:12:49.024Z,99.90
2023-05-18T02:20:14.203Z,99.90
2023-05-18T02:22:41.739Z,99.90
2023-05-18T02:25:09.758Z,99.90
2023-05-18T02:27:37.454Z,99.90
2023-05-18T02:30:06.736Z,99.90
2023-05-18T02:35:08.394Z,99.90
2023-05-18T02:37:40.194Z,99.90
2023-05-18T02:40:13.028Z,99.90
2023-05-18T02:42:41.674Z,99.90
2023-05-18T02:47:37.497Z,99.90
2023-05-18T02:50:07.616Z,99.90
2023-05-18T02:52:35.557Z,99.90
2023-05-18T02:55:04.482Z,99.90
2023-05-18T02:57:57.077Z,99.90
2023-05-18T03:00:34.253Z,99.90
2023-05-18T03:03:02.905Z,99.90
2023-05-18T03:15:23.096Z,99.90
2023-05-18T03:20:19.928Z,99.90
2023-05-18T03:22:47.565Z,99.90
2023-05-18T03:25:15.185Z,99.90
2023-05-18T03:32:41.510Z,99.90
2023-05-18T03:35:09.563Z,99.90
2023-05-18T03:37:37.452Z,99.90
2023-05-18T03:40:15.677Z,99.90
2023-05-18T03:42:45.345Z,99.90
2023-05-18T03:45:13.538Z,99.90
2023-05-18T03:52:39.751Z,99.90
2023-05-18T03:57:36.558Z,99.90
2023-05-18T04:00:09.787Z,99.90
2023-05-18T04:05:15.384Z,99.90
2023-05-18T04:10:14.521Z,99.90
2023-05-18T04:12:43.678Z,99.90
2023-05-18T04:20:14.495Z,99.90
2023-05-18T04:22:43.620Z,99.90
2023-05-18T04:25:11.858Z,99.90
2023-05-18T04:27:40.356Z,99.90
2023-05-18T04:30:10.742Z,99.90
2023-05-18T04:32:42.855Z,99.90
2023-05-18T04:35:12.088Z,99.90
2023-05-18T04:40:14.091Z,99.90
2023-05-18T04:42:45.461Z,99.90
2023-05-18T04:45:17.953Z,99.90
2023-05-18T04:47:47.498Z,99.90
2023-05-18T04:50:17.569Z,99.90
2023-05-18T04:52:48.703Z,99.90
2023-05-18T04:55:23.248Z,99.90
2023-05-18T05:00:21.611Z,99.90
2023-05-18T05:05:22.088Z,99.90
2023-05-18T05:07:51.509Z,99.90
2023-05-18T05:10:20.890Z,99.90
2023-05-18T05:12:50.503Z,99.90
2023-05-18T05:15:18.966Z,99.90
2023-05-18T05:17:47.956Z,99.90
2023-05-18T05:20:16.614Z,99.90
2023-05-18T05:22:44.338Z,99.90
2023-05-18T05:25:14.423Z,99.90
2023-05-18T05:27:42.062Z,99.90
2023-05-18T05:30:10.266Z,99.90
2023-05-18T05:35:07.993Z,99.90
2023-05-18T05:40:06.646Z,99.90
2023-05-18T05:42:39.398Z,99.90
2023-05-18T05:45:08.855Z,99.90
2023-05-18T05:47:43.704Z,99.90
2023-05-18T05:50:11.969Z,99.90
2023-05-18T05:52:40.264Z,99.90
2023-05-18T05:55:07.961Z,99.90
2023-05-18T05:57:36.456Z,99.90
2023-05-18T06:00:04.940Z,99.90
2023-05-18T06:02:49.094Z,99.90
2023-05-18T06:10:19.629Z,99.90
2023-05-18T06:12:47.882Z,99.90
2023-05-18T06:15:16.095Z,99.90
2023-05-18T06:17:44.206Z,99.90
2023-05-18T06:20:13.759Z,99.90
2023-05-18T06:22:41.567Z,99.90
2023-05-18T06:25:18.309Z,99.90
2023-05-18T06:28:10.465Z,99.90
2023-05-18T06:30:48.216Z,99.90
2023-05-18T06:33:29.699Z,99.90
2023-05-18T06:35:58.300Z,99.90
2023-05-18T06:38:26.103Z,99.90
2023-05-18T06:40:53.710Z,99.90
2023-05-18T06:43:21.406Z,99.90
2023-05-18T06:51:03.431Z,99.90
2023-05-18T06:56:00.722Z,99.90
2023-05-18T07:10:52.670Z,99.90
2023-05-18T07:13:20.411Z,99.90
2023-05-18T07:15:47.962Z,99.90
2023-05-18T07:18:15.724Z,99.90
2023-05-18T07:20:43.542Z,99.90
2023-05-18T07:23:11.153Z,99.90
2023-05-18T07:25:38.742Z,99.90
2023-05-18T07:28:06.394Z,99.90
2023-05-18T07:30:34.305Z,99.90
2023-05-18T07:33:02.142Z,99.90
2023-05-18T07:35:30.126Z,99.90
2023-05-18T07:37:57.883Z,99.90
2023-05-18T07:40:25.591Z,99.90
2023-05-18T07:45:21.982Z,99.90
2023-05-18T07:47:49.862Z,99.90
2023-05-18T07:52:45.578Z,99.90
2023-05-18T07:55:13.704Z,99.90
2023-05-18T08:00:10.415Z,99.90
2023-05-18T08:02:41.323Z,99.90
2023-05-18T08:07:38.482Z,99.90
2023-05-18T08:10:06.389Z,99.90
2023-05-18T08:12:33.970Z,99.90
2023-05-18T08:17:30.632Z,99.90
2023-05-18T08:19:58.256Z,99.90
2023-05-18T08:24:54.773Z,99.90
2023-05-18T08:29:50.345Z,99.90
2023-05-18T08:32:18.049Z,99.90
2023-05-18T08:34:46.722Z,99.90
2023-05-18T08:37:14.801Z,99.90
2023-05-18T08:39:42.449Z,99.90
2023-05-18T08:42:22.231Z,99.90
2023-05-18T08:45:03.682Z,99.90
2023-05-18T08:47:34.391Z,99.90
2023-05-18T08:50:02.800Z,99.90
2023-05-18T08:52:37.237Z,99.90
2023-05-18T08:55:09.437Z,99.90
2023-05-18T08:57:39.725Z,99.90
2023-05-18T09:00:09.986Z,99.90
2023-05-18T09:02:39.479Z,99.90
2023-05-18T09:05:08.350Z,99.90
2023-05-18T09:07:37.493Z,99.90
2023-05-18T09:10:06.025Z,99.60
2023-05-18T09:12:34.928Z,98.40
2023-05-18T09:15:03.800Z,96.10
2023-05-18T09:17:32.228Z,96.40
2023-05-18T09:19:59.890Z,96.50
2023-05-18T09:22:28.022Z,96.60
2023-05-18T09:24:55.765Z,96.50
2023-05-18T09:27:23.874Z,96.40
2023-05-18T09:29:56.649Z,95.70
2023-05-18T09:32:25.658Z,94.50
2023-05-18T09:34:53.939Z,94.10
2023-05-18T09:37:22.304Z,93.50
2023-05-18T09:39:59.904Z,91.30
2023-05-18T09:42:35.017Z,91.30
2023-05-18T09:45:03.415Z,91.00
2023-05-18T09:55:01.081Z,89.40
2023-05-18T10:00:02.622Z,85.70
2023-05-18T10:02:32.051Z,84.70
2023-05-18T10:07:27.450Z,85.00
2023-05-18T10:10:03.456Z,84.60
2023-05-18T10:12:31.147Z,85.10
2023-05-18T10:14:58.800Z,84.30
2023-05-18T10:17:28.116Z,81.20
2023-05-18T10:19:58.041Z,78.70
2023-05-18T10:22:27.635Z,77.90
2023-05-18T10:24:57.054Z,77.00
2023-05-18T10:27:29.160Z,75.00
2023-05-18T10:29:58.561Z,75.70
2023-05-18T10:32:29.638Z,74.80
2023-05-18T10:34:57.534Z,75.10
2023-05-18T10:37:30.695Z,74.30
2023-05-18T10:40:00.691Z,73.90
2023-05-18T10:42:31.307Z,73.70
2023-05-18T10:45:01.495Z,70.50
2023-05-18T10:47:29.684Z,69.90
2023-05-18T10:49:58.706Z,69.90
2023-05-18T10:52:31.821Z,70.70
2023-05-18T10:55:04.338Z,69.90
2023-05-18T10:57:56.338Z,68.50
2023-05-18T11:00:24.128Z,67.90
2023-05-18T11:02:52.732Z,66.10
2023-05-18T11:05:26.927Z,65.60
2023-05-18T11:08:03.373Z,66.00
2023-05-18T11:10:49.159Z,63.20
2023-05-18T11:13:16.896Z,61.60
2023-05-18T11:15:53.399Z,60.60
2023-05-18T11:18:41.271Z,62.20
2023-05-18T11:21:20.154Z,62.30
2023-05-18T11:24:19.321Z,62.20
2023-05-18T11:26:49.247Z,63.30
2023-05-18T11:29:18.399Z,63.60
2023-05-18T11:31:48.290Z,63.20
2023-05-18T11:34:47.825Z,63.20
2023-05-18T11:37:17.155Z,64.10
2023-05-18T11:40:05.723Z,63.80
2023-05-18T11:42:36.598Z,63.50
2023-05-18T11:45:13.183Z,62.30
2023-05-18T11:47:41.524Z,61.20
2023-05-18T11:50:12.214Z,61.80
2023-05-18T11:52:47.787Z,61.30
2023-05-18T11:55:16.501Z,61.60
2023-05-18T11:57:48.491Z,61.90
2023-05-18T12:00:17.102Z,62.50
2023-05-18T12:02:48.884Z,61.60
2023-05-18T12:05:17.423Z,61.50
2023-05-18T12:07:52.040Z,59.40
2023-05-18T12:10:21.981Z,58.10
2023-05-18T12:12:53.680Z,58.50
2023-05-18T12:15:25.159Z,56.50
2023-05-18T12:17:52.891Z,56.90
2023-05-18T12:20:22.393Z,54.90
2023-05-18T12:22:53.641Z,54.70
2023-05-18T12:25:23.402Z,54.20
2023-05-18T12:27:52.672Z,54.90
2023-05-18T12:30:24.846Z,52.40
2023-05-18T12:32:54.575Z,53.60
2023-05-18T12:35:23.776Z,52.60
2023-05-18T12:37:51.882Z,53.10
2023-05-18T12:40:20.214Z,52.80
2023-05-18T12:42:59.738Z,51.00
2023-05-18T12:45:31.824Z,51.40
2023-05-18T12:48:13.205Z,49.20
2023-05-18T12:50:51.089Z,48.20
2023-05-18T12:53:21.327Z,47.00
2023-05-18T12:56:09.743Z,47.60
2023-05-18T12:58:37.910Z,47.80
2023-05-18T13:01:10.445Z,48.30
2023-05-18T13:03:42.348Z,48.20
2023-05-18T13:06:10.128Z,48.60
2023-05-18T13:08:37.925Z,49.10
2023-05-18T13:11:13.513Z,49.60
2023-05-18T13:14:02.037Z,48.90
2023-05-18T13:16:30.768Z,49.20
2023-05-18T13:19:09.976Z,49.60
2023-05-18T13:21:38.032Z,49.80
2023-05-18T13:24:05.939Z,50.20
2023-05-18T13:26:33.663Z,50.20
2023-05-18T13:29:01.757Z,50.60
2023-05-18T13:31:29.843Z,49.60
2023-05-18T13:33:57.539Z,49.70
2023-05-18T13:36:26.128Z,50.20
2023-05-18T13:38:54.162Z,51.00
2023-05-18T13:41:21.833Z,51.40
2023-05-18T13:43:49.351Z,52.00
2023-05-18T13:46:17.005Z,51.60
2023-05-18T13:48:44.475Z,51.90
2023-05-18T13:51:12.120Z,52.40
2023-05-18T13:56:08.526Z,52.20
2023-05-18T13:58:36.156Z,52.00
2023-05-18T14:01:07.874Z,51.90
2023-05-18T14:03:36.754Z,52.10
2023-05-18T14:06:04.618Z,52.00
2023-05-18T14:08:32.143Z,51.70
2023-05-18T14:10:59.586Z,52.20
2023-05-18T14:13:27.044Z,52.30
2023-05-18T14:15:54.508Z,51.90
2023-05-18T14:18:22.118Z,51.60
2023-05-18T14:20:49.644Z,52.20
2023-05-18T14:23:17.139Z,52.20
2023-05-18T14:25:45.951Z,52.40
2023-05-18T14:28:13.639Z,52.90
2023-05-18T14:30:41.245Z,53.00
2023-05-18T14:33:08.902Z,52.80
2023-05-18T14:35:36.369Z,52.40
2023-05-18T14:38:04.915Z,52.60
2023-05-18T14:40:32.731Z,52.80
2023-05-18T14:43:00.488Z,52.60
2023-05-18T14:45:27.998Z,53.00
2023-05-18T14:47:55.545Z,53.10
2023-05-18T14:50:23.463Z,53.90
2023-05-18T14:52:52.169Z,54.00
2023-05-18T14:55:19.588Z,53.80
2023-05-18T14:57:47.156Z,54.30
2023-05-18T15:00:15.198Z,53.60
2023-05-18T15:05:11.314Z,51.80
2023-05-18T15:07:38.853Z,51.40
2023-05-18T15:10:06.960Z,51.40
2023-05-18T15:12:34.400Z,51.90
2023-05-18T15:15:01.895Z,51.60
2023-05-18T15:17:29.436Z,52.00
2023-05-18T15:19:56.873Z,52.70
2023-05-18T15:22:24.318Z,52.30
2023-05-18T15:24:51.749Z,52.50
2023-05-18T15:27:19.411Z,51.30
2023-05-18T15:29:48.431Z,51.40
2023-05-18T15:32:16.205Z,51.90
2023-05-18T15:34:43.761Z,51.70
2023-05-18T15:37:11.235Z,52.60
2023-05-18T15:39:38.723Z,52.70
2023-05-18T15:42:06.482Z,53.10
2023-05-18T15:44:34.043Z,52.30
2023-05-18T15:47:02.077Z,52.40
2023-05-18T15:49:29.600Z,52.50
2023-05-18T15:51:57.093Z,52.80
2023-05-18T15:54:24.709Z,52.60
2023-05-18T15:56:52.251Z,52.50
2023-05-18T15:59:19.984Z,52.60
2023-05-18T16:01:47.707Z,52.90
2023-05-18T16:06:43.111Z,52.60
2023-05-18T16:16:33.991Z,53.20
2023-05-18T16:19:02.374Z,54.20
2023-05-18T16:21:29.995Z,56.00
2023-05-18T16:23:57.565Z,57.20
2023-05-18T16:26:25.121Z,57.90
2023-05-18T16:28:52.656Z,59.00
2023-05-18T16:33:48.176Z,62.50
2023-05-18T16:36:15.679Z,64.30
2023-05-18T16:38:43.166Z,65.50
2023-05-18T16:43:39.781Z,68.20
2023-05-18T16:48:35.233Z,70.10
2023-05-18T16:53:34.177Z,72.10
2023-05-18T16:56:01.863Z,72.20
2023-05-18T16:58:29.589Z,73.10
2023-05-18T17:10:48.318Z,76.40
2023-05-18T17:13:15.862Z,76.80
2023-05-18T17:20:38.979Z,78.60
2023-05-18T17:23:06.533Z,79.20
2023-05-18T17:28:01.818Z,80.20
2023-05-18T17:30:29.325Z,81.10
2023-05-18T17:37:53.712Z,82.00
2023-05-18T17:40:21.176Z,82.40
2023-05-18T17:45:18.106Z,82.80
2023-05-18T17:47:46.270Z,82.90
2023-05-18T17:52:42.008Z,83.60
2023-05-18T17:55:09.799Z,83.90
2023-05-18T17:57:45.740Z,84.20
2023-05-18T18:00:14.361Z,84.70
2023-05-18T18:02:42.026Z,84.80
2023-05-18T18:05:09.928Z,85.10
2023-05-18T18:07:37.524Z,85.90
2023-05-18T18:10:06.440Z,86.60
2023-05-18T18:12:34.014Z,87.60
2023-05-18T18:15:01.620Z,88.20
2023-05-18T18:17:29.460Z,89.00
2023-05-18T18:29:49.784Z,90.50
2023-05-18T18:32:17.403Z,90.90
2023-05-18T18:37:13.041Z,91.40
2023-05-18T19:24:07.256Z,96.80
2023-05-18T19:34:02.041Z,99.10
2023-05-18T19:38:57.656Z,99.90
2023-05-18T19:41:26.986Z,99.90
2023-05-18T19:43:57.537Z,99.90
2023-05-18T19:48:57.557Z,99.90
2023-05-18T19:51:27.256Z,99.90
2023-05-18T19:56:23.075Z,99.90
2023-05-18T20:01:19.477Z,99.90
2023-05-18T20:03:50.178Z,99.90
2023-05-18T20:06:18.395Z,99.90
2023-05-18T20:16:14.696Z,99.90
2023-05-18T20:21:13.822Z,99.90
2023-05-18T20:23:47.240Z,99.90
2023-05-18T20:48:35.893Z,99.90
2023-05-18T20:51:03.687Z,99.90
2023-05-18T20:53:31.333Z,99.90
2023-05-18T21:28:04.872Z,99.90
2023-05-18T21:33:01.374Z,99.90
2023-05-18T21:35:29.118Z,99.90
2023-05-18T21:45:22.651Z,99.90
2023-05-18T21:50:18.478Z,99.90
2023-05-18T21:55:14.000Z,99.90
2023-05-18T22:00:12.310Z,99.90
2023-05-18T22:12:37.534Z,99.90
2023-05-18T22:15:05.930Z,99.90
2023-05-18T22:20:02.538Z,99.90
2023-05-18T22:22:30.883Z,99.90
2023-05-18T22:29:54.496Z,99.90
2023-05-18T22:34:50.699Z,99.90
2023-05-18T22:39:46.335Z,99.90
2023-05-18T22:44:41.970Z,99.90
2023-05-18T22:47:10.041Z,99.90
2023-05-18T22:49:37.743Z,99.90
2023-05-18T22:52:06.626Z,99.90
2023-05-18T22:57:02.338Z,99.90
2023-05-18T22:59:29.911Z,99.90
2023-05-18T23:01:57.474Z,99.90
2023-05-18T23:04:25.125Z,99.90
2023-05-18T23:09:21.638Z,99.90
2023-05-18T23:11:52.408Z,99.90
2023-05-18T23:16:49.350Z,99.90
2023-05-18T23:21:47.516Z,99.90
2023-05-18T23:26:44.207Z,99.90
2023-05-18T23:29:12.013Z,99.90
2023-05-18T23:31:39.655Z,99.90
2023-05-18T23:34:07.553Z,99.90
2023-05-18T23:36:35.456Z,99.90
2023-05-18T23:39:03.782Z,99.90
2023-05-18T23:41:33.831Z,99.90
2023-05-18T23:44:01.868Z,99.90
2023-05-18T23:46:30.024Z,99.90
2023-05-18T23:48:59.866Z,99.90
2023-05-18T23:51:32.119Z,99.90
2023-05-18T23:54:00.804Z,99.90
2023-05-18T23:56:29.102Z,99.90
